sensor_id;sensor_type;location;lat;lon;timestamp;temperature;humidity
52381;DHT22;38310;52.796;6.942;2022-12-31T00:00:29;11.90;99.90
52381;DHT22;38310;52.796;6.942;2022-12-31T00:02:54;11.90;99.90
52381;DHT22;38310;52.796;6.942;2022-12-31T00:05:20;11.90;99.90
52381;DHT22;38310;52.796;6.942;2022-12-31T00:07:47;11.80;99.90
52381;DHT22;38310;52.796;6.942;2022-12-31T00:10:13;11.90;99.90
52381;DHT22;38310;52.796;6.942;2022-12-31T00:12:39;11.90;99.90
52381;DHT22;38310;52.796;6.942;2022-12-31T00:15:05;11.80;99.90
52381;DHT22;38310;52.796;6.942;2022-12-31T00:17:31;11.90;99.90
52381;DHT22;38310;52.796;6.942;2022-12-31T00:19:57;11.80;99.90
52381;DHT22;38310;52.796;6.942;2022-12-31T00:22:22;11.80;99.90
52381;DHT22;38310;52.796;6.942;2022-12-31T00:24:48;11.30;99.90
52381;DHT22;38310;52.796;6.942;2022-12-31T00:27:14;11.80;99.90
52381;DHT22;38310;52.796;6.942;2022-12-31T00:29:40;11.80;99.90
52381;DHT22;38310;52.796;6.942;2022-12-31T00:32:06;11.80;99.90
52381;DHT22;38310;52.796;6.942;2022-12-31T00:34:32;11.80;99.90
52381;DHT22;38310;52.796;6.942;2022-12-31T00:36:57;11.70;99.90
52381;DHT22;38310;52.796;6.942;2022-12-31T00:39:23;11.80;99.90
52381;DHT22;38310;52.796;6.942;2022-12-31T00:41:49;11.80;99.90
52381;DHT22;38310;52.796;6.942;2022-12-31T00:44:15;11.80;99.90
52381;DHT22;38310;52.796;6.942;2022-12-31T00:46:40;11.70;99.90
52381;DHT22;38310;52.796;6.942;2022-12-31T00:49:07;11.70;99.90
52381;DHT22;38310;52.796;6.942;2022-12-31T00:51:33;11.70;99.90
52381;DHT22;38310;52.796;6.942;2022-12-31T00:53:59;11.70;99.90
52381;DHT22;38310;52.796;6.942;2022-12-31T00:56:28;11.70;99.90
52381;DHT22;38310;52.796;6.942;2022-12-31T00:58:55;11.80;99.90
52381;DHT22;38310;52.796;6.942;2022-12-31T01:01:32;11.70;99.90
52381;DHT22;38310;52.796;6.942;2022-12-31T01:04:04;11.70;99.90
52381;DHT22;38310;52.796;6.942;2022-12-31T01:06:30;11.80;99.90
52381;DHT22;38310;52.796;6.942;2022-12-31T01:08:56;11.70;99.90
52381;DHT22;38310;52.796;6.942;2022-12-31T01:11:23;11.70;99.90
52381;DHT22;38310;52.796;6.942;2022-12-31T01:14:02;11.70;99.90
52381;DHT22;38310;52.796;6.942;2022-12-31T01:16:31;11.80;99.90
52381;DHT22;38310;52.796;6.942;2022-12-31T01:18:59;11.70;99.90
52381;DHT22;38310;52.796;6.942;2022-12-31T01:21:25;11.70;99.90
52381;DHT22;38310;52.796;6.942;2022-12-31T01:23:51;11.70;99.90
52381;DHT22;38310;52.796;6.942;2022-12-31T01:26:18;11.70;99.90
52381;DHT22;38310;52.796;6.942;2022-12-31T01:28:44;11.70;99.90
52381;DHT22;38310;52.796;6.942;2022-12-31T01:31:12;11.70;99.90
52381;DHT22;38310;52.796;6.942;2022-12-31T01:33:39;11.70;99.90
52381;DHT22;38310;52.796;6.942;2022-12-31T01:36:17;11.80;99.90
52381;DHT22;38310;52.796;6.942;2022-12-31T01:38:43;11.70;99.90
52381;DHT22;38310;52.796;6.942;2022-12-31T01:41:17;10.90;99.90
52381;DHT22;38310;52.796;6.942;2022-12-31T01:43:53;11.70;99.90
52381;DHT22;38310;52.796;6.942;2022-12-31T01:46:37;11.70;99.90
52381;DHT22;38310;52.796;6.942;2022-12-31T01:49:23;11.70;99.90
52381;DHT22;38310;52.796;6.942;2022-12-31T01:51:59;11.70;99.90
52381;DHT22;38310;52.796;6.942;2022-12-31T01:54:27;11.70;99.90
52381;DHT22;38310;52.796;6.942;2022-12-31T01:56:55;11.70;99.90
52381;DHT22;38310;52.796;6.942;2022-12-31T01:59:21;11.70;99.90
52381;DHT22;38310;52.796;6.942;2022-12-31T02:01:49;11.70;99.90
52381;DHT22;38310;52.796;6.942;2022-12-31T02:04:20;11.70;99.90
52381;DHT22;38310;52.796;6.942;2022-12-31T02:06:56;11.60;99.90
52381;DHT22;38310;52.796;6.942;2022-12-31T02:09:23;11.60;99.90
52381;DHT22;38310;52.796;6.942;2022-12-31T02:11:49;11.60;99.90
52381;DHT22;38310;52.796;6.942;2022-12-31T02:14:18;11.60;99.90
52381;DHT22;38310;52.796;6.942;2022-12-31T02:19:45;11.60;99.90
52381;DHT22;38310;52.796;6.942;2022-12-31T02:30:39;11.50;99.90
52381;DHT22;38310;52.796;6.942;2022-12-31T02:33:17;11.50;99.90
52381;DHT22;38310;52.796;6.942;2022-12-31T02:35:57;11.50;99.90
52381;DHT22;38310;52.796;6.942;2022-12-31T02:38:27;11.40;99.90
52381;DHT22;38310;52.796;6.942;2022-12-31T02:40:55;11.40;99.90
52381;DHT22;38310;52.796;6.942;2022-12-31T02:43:22;11.30;99.90
52381;DHT22;38310;52.796;6.942;2022-12-31T02:48:54;11.30;99.90
52381;DHT22;38310;52.796;6.942;2022-12-31T02:51:43;11.30;99.90
52381;DHT22;38310;52.796;6.942;2022-12-31T02:57:28;11.20;99.90
52381;DHT22;38310;52.796;6.942;2022-12-31T03:00:08;11.20;99.90
52381;DHT22;38310;52.796;6.942;2022-12-31T03:02:54;11.10;99.90
52381;DHT22;38310;52.796;6.942;2022-12-31T03:05:24;11.10;99.90
52381;DHT22;38310;52.796;6.942;2022-12-31T03:07:50;11.10;99.90
52381;DHT22;38310;52.796;6.942;2022-12-31T03:10:19;11.10;99.90
52381;DHT22;38310;52.796;6.942;2022-12-31T03:12:45;11.20;99.90
52381;DHT22;38310;52.796;6.942;2022-12-31T03:15:32;11.10;99.90
52381;DHT22;38310;52.796;6.942;2022-12-31T03:18:07;11.20;99.90
52381;DHT22;38310;52.796;6.942;2022-12-31T03:23:28;11.10;99.90
52381;DHT22;38310;52.796;6.942;2022-12-31T03:25:55;11.10;99.90
52381;DHT22;38310;52.796;6.942;2022-12-31T03:28:23;11.10;99.90
52381;DHT22;38310;52.796;6.942;2022-12-31T03:30:52;11.10;99.90
52381;DHT22;38310;52.796;6.942;2022-12-31T03:33:19;11.00;99.90
52381;DHT22;38310;52.796;6.942;2022-12-31T03:35:46;11.00;99.90
52381;DHT22;38310;52.796;6.942;2022-12-31T03:38:12;11.00;99.90
52381;DHT22;38310;52.796;6.942;2022-12-31T03:40:47;11.00;99.90
52381;DHT22;38310;52.796;6.942;2022-12-31T03:43:13;11.00;99.90
52381;DHT22;38310;52.796;6.942;2022-12-31T03:45:39;11.00;99.90
52381;DHT22;38310;52.796;6.942;2022-12-31T03:48:07;11.00;99.90
52381;DHT22;38310;52.796;6.942;2022-12-31T03:50:34;11.00;99.90
52381;DHT22;38310;52.796;6.942;2022-12-31T03:53:00;11.00;99.90
52381;DHT22;38310;52.796;6.942;2022-12-31T03:55:26;11.00;99.90
52381;DHT22;38310;52.796;6.942;2022-12-31T03:57:52;11.10;99.90
52381;DHT22;38310;52.796;6.942;2022-12-31T04:00:18;11.10;99.90
52381;DHT22;38310;52.796;6.942;2022-12-31T04:02:46;11.10;99.90
52381;DHT22;38310;52.796;6.942;2022-12-31T04:05:12;11.10;99.90
52381;DHT22;38310;52.796;6.942;2022-12-31T04:07:38;11.10;99.90
52381;DHT22;38310;52.796;6.942;2022-12-31T04:10:06;11.10;99.90
52381;DHT22;38310;52.796;6.942;2022-12-31T04:12:32;11.10;99.90
52381;DHT22;38310;52.796;6.942;2022-12-31T04:14:59;11.10;99.90
52381;DHT22;38310;52.796;6.942;2022-12-31T04:17:25;11.10;99.90
52381;DHT22;38310;52.796;6.942;2022-12-31T04:19:51;11.10;99.90
52381;DHT22;38310;52.796;6.942;2022-12-31T04:22:17;11.10;99.90
52381;DHT22;38310;52.796;6.942;2022-12-31T04:24:43;11.20;99.90
52381;DHT22;38310;52.796;6.942;2022-12-31T04:27:10;11.10;99.90
52381;DHT22;38310;52.796;6.942;2022-12-31T04:29:36;11.10;99.90
52381;DHT22;38310;52.796;6.942;2022-12-31T04:32:03;11.10;99.90
52381;DHT22;38310;52.796;6.942;2022-12-31T04:34:29;11.10;99.90
52381;DHT22;38310;52.796;6.942;2022-12-31T04:36:55;11.10;99.90
52381;DHT22;38310;52.796;6.942;2022-12-31T04:39:21;11.10;99.90
52381;DHT22;38310;52.796;6.942;2022-12-31T04:41:47;11.10;99.90
52381;DHT22;38310;52.796;6.942;2022-12-31T04:44:13;11.10;99.90
52381;DHT22;38310;52.796;6.942;2022-12-31T04:46:38;11.10;99.90
52381;DHT22;38310;52.796;6.942;2022-12-31T04:49:04;11.10;99.90
52381;DHT22;38310;52.796;6.942;2022-12-31T04:51:30;11.10;99.90
52381;DHT22;38310;52.796;6.942;2022-12-31T04:53:57;11.10;99.90
52381;DHT22;38310;52.796;6.942;2022-12-31T04:56:23;11.00;99.90
52381;DHT22;38310;52.796;6.942;2022-12-31T04:58:49;11.00;99.90
52381;DHT22;38310;52.796;6.942;2022-12-31T05:01:15;11.00;99.90
52381;DHT22;38310;52.796;6.942;2022-12-31T05:03:41;11.00;99.90
52381;DHT22;38310;52.796;6.942;2022-12-31T05:06:19;11.00;99.90
52381;DHT22;38310;52.796;6.942;2022-12-31T05:08:45;11.00;99.90
52381;DHT22;38310;52.796;6.942;2022-12-31T05:11:12;10.90;99.90
52381;DHT22;38310;52.796;6.942;2022-12-31T05:13:38;10.90;99.90
52381;DHT22;38310;52.796;6.942;2022-12-31T05:16:04;10.90;99.90
52381;DHT22;38310;52.796;6.942;2022-12-31T05:18:31;10.90;99.90
52381;DHT22;38310;52.796;6.942;2022-12-31T05:20:57;10.90;99.90
52381;DHT22;38310;52.796;6.942;2022-12-31T05:23:23;10.90;99.90
52381;DHT22;38310;52.796;6.942;2022-12-31T05:25:50;10.90;99.90
52381;DHT22;38310;52.796;6.942;2022-12-31T05:28:16;10.80;99.90
52381;DHT22;38310;52.796;6.942;2022-12-31T05:30:42;10.80;99.90
52381;DHT22;38310;52.796;6.942;2022-12-31T05:33:09;10.80;99.90
52381;DHT22;38310;52.796;6.942;2022-12-31T05:35:34;10.80;99.90
52381;DHT22;38310;52.796;6.942;2022-12-31T05:38:01;10.80;99.90
52381;DHT22;38310;52.796;6.942;2022-12-31T05:40:27;10.80;99.90
52381;DHT22;38310;52.796;6.942;2022-12-31T05:42:53;10.80;99.90
52381;DHT22;38310;52.796;6.942;2022-12-31T05:45:19;10.80;99.90
52381;DHT22;38310;52.796;6.942;2022-12-31T05:47:45;10.80;99.90
52381;DHT22;38310;52.796;6.942;2022-12-31T05:50:13;10.80;99.90
52381;DHT22;38310;52.796;6.942;2022-12-31T05:52:43;10.90;99.90
52381;DHT22;38310;52.796;6.942;2022-12-31T05:55:09;10.80;99.90
52381;DHT22;38310;52.796;6.942;2022-12-31T05:57:35;10.80;99.90
52381;DHT22;38310;52.796;6.942;2022-12-31T06:00:02;10.80;99.90
52381;DHT22;38310;52.796;6.942;2022-12-31T06:02:28;10.90;99.90
52381;DHT22;38310;52.796;6.942;2022-12-31T06:04:54;10.90;99.90
52381;DHT22;38310;52.796;6.942;2022-12-31T06:07:20;10.90;99.90
52381;DHT22;38310;52.796;6.942;2022-12-31T06:09:45;11.60;99.90
52381;DHT22;38310;52.796;6.942;2022-12-31T06:12:11;10.90;99.90
52381;DHT22;38310;52.796;6.942;2022-12-31T06:14:37;10.90;99.90
52381;DHT22;38310;52.796;6.942;2022-12-31T06:17:02;10.90;99.90
52381;DHT22;38310;52.796;6.942;2022-12-31T06:19:28;11.00;99.90
52381;DHT22;38310;52.796;6.942;2022-12-31T06:21:54;10.90;99.90
52381;DHT22;38310;52.796;6.942;2022-12-31T06:24:19;11.00;99.90
52381;DHT22;38310;52.796;6.942;2022-12-31T06:26:45;10.90;99.90
52381;DHT22;38310;52.796;6.942;2022-12-31T06:29:11;10.90;99.90
52381;DHT22;38310;52.796;6.942;2022-12-31T06:31:36;11.00;99.90
52381;DHT22;38310;52.796;6.942;2022-12-31T06:34:02;11.00;99.90
52381;DHT22;38310;52.796;6.942;2022-12-31T06:36:28;10.90;99.90
52381;DHT22;38310;52.796;6.942;2022-12-31T06:38:54;11.00;99.90
52381;DHT22;38310;52.796;6.942;2022-12-31T06:41:20;11.00;99.90
52381;DHT22;38310;52.796;6.942;2022-12-31T06:43:45;11.00;99.90
52381;DHT22;38310;52.796;6.942;2022-12-31T06:46:14;11.00;99.90
52381;DHT22;38310;52.796;6.942;2022-12-31T06:48:40;10.90;99.90
52381;DHT22;38310;52.796;6.942;2022-12-31T06:51:15;11.10;99.90
52381;DHT22;38310;52.796;6.942;2022-12-31T06:53:42;10.90;99.90
52381;DHT22;38310;52.796;6.942;2022-12-31T06:56:13;10.90;99.90
52381;DHT22;38310;52.796;6.942;2022-12-31T06:58:40;10.90;99.90
52381;DHT22;38310;52.796;6.942;2022-12-31T07:01:29;10.90;99.90
52381;DHT22;38310;52.796;6.942;2022-12-31T07:06:52;10.90;99.90
52381;DHT22;38310;52.796;6.942;2022-12-31T07:12:31;10.90;99.90
52381;DHT22;38310;52.796;6.942;2022-12-31T07:15:42;10.80;99.90
52381;DHT22;38310;52.796;6.942;2022-12-31T07:20:45;10.80;99.90
52381;DHT22;38310;52.796;6.942;2022-12-31T07:23:11;10.90;99.90
52381;DHT22;38310;52.796;6.942;2022-12-31T07:25:40;10.80;99.90
52381;DHT22;38310;52.796;6.942;2022-12-31T07:30:52;10.80;99.90
52381;DHT22;38310;52.796;6.942;2022-12-31T07:36:06;10.90;99.90
52381;DHT22;38310;52.796;6.942;2022-12-31T07:41:26;11.00;99.90
52381;DHT22;38310;52.796;6.942;2022-12-31T07:44:06;11.10;99.90
52381;DHT22;38310;52.796;6.942;2022-12-31T07:46:56;11.10;99.90
52381;DHT22;38310;52.796;6.942;2022-12-31T07:49:24;11.10;99.90
52381;DHT22;38310;52.796;6.942;2022-12-31T07:51:51;11.10;99.90
52381;DHT22;38310;52.796;6.942;2022-12-31T07:54:17;11.10;99.90
52381;DHT22;38310;52.796;6.942;2022-12-31T07:56:44;11.10;99.90
52381;DHT22;38310;52.796;6.942;2022-12-31T07:59:28;11.20;99.90
52381;DHT22;38310;52.796;6.942;2022-12-31T08:05:05;11.10;99.90
52381;DHT22;38310;52.796;6.942;2022-12-31T08:08:04;11.20;99.90
52381;DHT22;38310;52.796;6.942;2022-12-31T08:13:29;11.30;99.90
52381;DHT22;38310;52.796;6.942;2022-12-31T08:15:55;11.20;99.90
52381;DHT22;38310;52.796;6.942;2022-12-31T08:18:21;11.20;99.90
52381;DHT22;38310;52.796;6.942;2022-12-31T08:23:38;11.40;99.90
52381;DHT22;38310;52.796;6.942;2022-12-31T08:26:21;11.40;99.90
52381;DHT22;38310;52.796;6.942;2022-12-31T08:32:02;11.50;99.90
52381;DHT22;38310;52.796;6.942;2022-12-31T08:37:34;11.60;99.90
52381;DHT22;38310;52.796;6.942;2022-12-31T08:40:16;11.70;99.90
52381;DHT22;38310;52.796;6.942;2022-12-31T08:48:38;11.80;99.90
52381;DHT22;38310;52.796;6.942;2022-12-31T08:51:18;11.90;99.90
52381;DHT22;38310;52.796;6.942;2022-12-31T08:53:44;12.00;99.90
52381;DHT22;38310;52.796;6.942;2022-12-31T08:56:37;12.00;99.90
52381;DHT22;38310;52.796;6.942;2022-12-31T09:07:09;12.20;99.90
52381;DHT22;38310;52.796;6.942;2022-12-31T09:09:58;12.20;99.90
52381;DHT22;38310;52.796;6.942;2022-12-31T09:15:32;12.30;99.90
52381;DHT22;38310;52.796;6.942;2022-12-31T09:17:58;12.30;99.90
52381;DHT22;38310;52.796;6.942;2022-12-31T09:20:30;12.40;99.90
52381;DHT22;38310;52.796;6.942;2022-12-31T09:22:57;12.50;99.90
52381;DHT22;38310;52.796;6.942;2022-12-31T09:25:24;12.50;99.90
52381;DHT22;38310;52.796;6.942;2022-12-31T09:30:33;12.60;99.90
52381;DHT22;38310;52.796;6.942;2022-12-31T09:33:20;12.60;99.90
52381;DHT22;38310;52.796;6.942;2022-12-31T09:35:55;12.60;99.90
52381;DHT22;38310;52.796;6.942;2022-12-31T09:54:45;12.90;99.90
52381;DHT22;38310;52.796;6.942;2022-12-31T09:57:40;12.90;99.90
52381;DHT22;38310;52.796;6.942;2022-12-31T10:15:00;13.00;99.90
52381;DHT22;38310;52.796;6.942;2022-12-31T10:18:10;13.00;99.90
52381;DHT22;38310;52.796;6.942;2022-12-31T10:23:45;13.20;99.90
52381;DHT22;38310;52.796;6.942;2022-12-31T10:26:40;13.10;99.90
52381;DHT22;38310;52.796;6.942;2022-12-31T10:29:32;13.10;99.90
52381;DHT22;38310;52.796;6.942;2022-12-31T10:34:53;13.20;99.90
52381;DHT22;38310;52.796;6.942;2022-12-31T10:37:25;13.30;99.90
52381;DHT22;38310;52.796;6.942;2022-12-31T10:39:59;13.30;99.90
52381;DHT22;38310;52.796;6.942;2022-12-31T10:48:35;13.30;99.90
52381;DHT22;38310;52.796;6.942;2022-12-31T10:51:15;13.40;99.90
52381;DHT22;38310;52.796;6.942;2022-12-31T11:05:27;13.40;99.90
52381;DHT22;38310;52.796;6.942;2022-12-31T11:21:42;13.50;99.90
52381;DHT22;38310;52.796;6.942;2022-12-31T11:38:50;13.30;99.90
52381;DHT22;38310;52.796;6.942;2022-12-31T11:41:41;13.30;99.90
52381;DHT22;38310;52.796;6.942;2022-12-31T11:44:27;13.30;99.90
52381;DHT22;38310;52.796;6.942;2022-12-31T11:50:12;13.40;99.90
52381;DHT22;38310;52.796;6.942;2022-12-31T11:55:36;13.40;99.90
52381;DHT22;38310;52.796;6.942;2022-12-31T11:58:18;13.40;99.90
52381;DHT22;38310;52.796;6.942;2022-12-31T12:01:10;13.50;99.90
52381;DHT22;38310;52.796;6.942;2022-12-31T12:03:36;13.50;99.90
52381;DHT22;38310;52.796;6.942;2022-12-31T12:06:16;13.50;99.90
52381;DHT22;38310;52.796;6.942;2022-12-31T12:08:43;13.50;99.90
52381;DHT22;38310;52.796;6.942;2022-12-31T12:11:31;13.60;99.90
52381;DHT22;38310;52.796;6.942;2022-12-31T12:13:57;13.60;99.90
52381;DHT22;38310;52.796;6.942;2022-12-31T12:16:24;13.70;99.90
52381;DHT22;38310;52.796;6.942;2022-12-31T12:21:28;13.70;99.90
52381;DHT22;38310;52.796;6.942;2022-12-31T12:23:57;13.80;99.90
52381;DHT22;38310;52.796;6.942;2022-12-31T12:26:36;13.80;99.90
52381;DHT22;38310;52.796;6.942;2022-12-31T12:29:10;13.80;99.90
52381;DHT22;38310;52.796;6.942;2022-12-31T12:31:36;13.80;99.90
52381;DHT22;38310;52.796;6.942;2022-12-31T12:34:02;13.80;99.90
52381;DHT22;38310;52.796;6.942;2022-12-31T12:36:28;13.80;99.90
52381;DHT22;38310;52.796;6.942;2022-12-31T12:39:05;13.80;99.90
52381;DHT22;38310;52.796;6.942;2022-12-31T12:41:31;13.80;99.90
52381;DHT22;38310;52.796;6.942;2022-12-31T12:44:05;13.80;99.90
52381;DHT22;38310;52.796;6.942;2022-12-31T12:46:34;13.80;99.90
52381;DHT22;38310;52.796;6.942;2022-12-31T12:49:00;13.80;99.90
52381;DHT22;38310;52.796;6.942;2022-12-31T12:58:14;13.60;99.90
52381;DHT22;38310;52.796;6.942;2022-12-31T13:00:59;13.50;99.90
52381;DHT22;38310;52.796;6.942;2022-12-31T13:06:20;13.50;99.90
52381;DHT22;38310;52.796;6.942;2022-12-31T13:14:37;13.50;99.90
52381;DHT22;38310;52.796;6.942;2022-12-31T13:17:45;13.60;99.90
52381;DHT22;38310;52.796;6.942;2022-12-31T13:23:01;13.50;99.90
52381;DHT22;38310;52.796;6.942;2022-12-31T13:28:23;13.40;99.90
52381;DHT22;38310;52.796;6.942;2022-12-31T13:30:59;13.40;99.90
52381;DHT22;38310;52.796;6.942;2022-12-31T13:33:36;13.40;99.90
52381;DHT22;38310;52.796;6.942;2022-12-31T13:36:06;13.30;99.90
52381;DHT22;38310;52.796;6.942;2022-12-31T13:38:42;13.30;99.90
52381;DHT22;38310;52.796;6.942;2022-12-31T13:44:17;13.40;99.90
52381;DHT22;38310;52.796;6.942;2022-12-31T13:47:13;13.40;99.90
52381;DHT22;38310;52.796;6.942;2022-12-31T13:49:45;13.50;99.90
52381;DHT22;38310;52.796;6.942;2022-12-31T13:55:14;13.30;99.90
52381;DHT22;38310;52.796;6.942;2022-12-31T13:57:53;13.60;99.90
52381;DHT22;38310;52.796;6.942;2022-12-31T14:00:39;13.80;99.90
52381;DHT22;38310;52.796;6.942;2022-12-31T14:03:48;13.80;99.90
52381;DHT22;38310;52.796;6.942;2022-12-31T14:09:07;14.10;99.90
52381;DHT22;38310;52.796;6.942;2022-12-31T14:22:52;14.30;99.90
52381;DHT22;38310;52.796;6.942;2022-12-31T14:25:26;14.40;99.90
52381;DHT22;38310;52.796;6.942;2022-12-31T14:27:55;14.40;99.90
52381;DHT22;38310;52.796;6.942;2022-12-31T14:30:24;14.40;99.90
52381;DHT22;38310;52.796;6.942;2022-12-31T14:33:12;14.30;99.90
52381;DHT22;38310;52.796;6.942;2022-12-31T14:38:53;14.30;99.90
52381;DHT22;38310;52.796;6.942;2022-12-31T14:49:52;14.10;99.90
52381;DHT22;38310;52.796;6.942;2022-12-31T14:52:31;14.00;99.90
52381;DHT22;38310;52.796;6.942;2022-12-31T14:57:39;14.00;99.90
52381;DHT22;38310;52.796;6.942;2022-12-31T15:03:06;14.10;99.90
52381;DHT22;38310;52.796;6.942;2022-12-31T15:05:33;14.00;99.90
52381;DHT22;38310;52.796;6.942;2022-12-31T15:08:16;14.00;99.90
52381;DHT22;38310;52.796;6.942;2022-12-31T15:11:17;14.10;99.90
52381;DHT22;38310;52.796;6.942;2022-12-31T15:14:06;14.10;99.90
52381;DHT22;38310;52.796;6.942;2022-12-31T15:25:30;14.20;99.90
52381;DHT22;38310;52.796;6.942;2022-12-31T15:30:58;14.20;99.90
52381;DHT22;38310;52.796;6.942;2022-12-31T15:36:34;14.10;99.90
52381;DHT22;38310;52.796;6.942;2022-12-31T15:41:55;13.90;99.90
52381;DHT22;38310;52.796;6.942;2022-12-31T15:46:55;13.90;99.90
52381;DHT22;38310;52.796;6.942;2022-12-31T15:49:23;13.80;99.90
52381;DHT22;38310;52.796;6.942;2022-12-31T15:52:03;13.80;99.90
52381;DHT22;38310;52.796;6.942;2022-12-31T15:54:38;13.80;99.90
52381;DHT22;38310;52.796;6.942;2022-12-31T15:57:05;13.70;99.90
52381;DHT22;38310;52.796;6.942;2022-12-31T15:59:35;13.70;99.90
52381;DHT22;38310;52.796;6.942;2022-12-31T16:02:02;13.60;99.90
52381;DHT22;38310;52.796;6.942;2022-12-31T16:04:29;13.60;99.90
52381;DHT22;38310;52.796;6.942;2022-12-31T16:06:59;13.70;99.90
52381;DHT22;38310;52.796;6.942;2022-12-31T16:09:31;13.70;99.90
52381;DHT22;38310;52.796;6.942;2022-12-31T16:12:02;13.70;99.90
52381;DHT22;38310;52.796;6.942;2022-12-31T16:14:38;13.60;99.90
52381;DHT22;38310;52.796;6.942;2022-12-31T16:17:05;13.60;99.90
52381;DHT22;38310;52.796;6.942;2022-12-31T16:19:40;13.70;99.90
52381;DHT22;38310;52.796;6.942;2022-12-31T16:22:12;13.70;99.90
52381;DHT22;38310;52.796;6.942;2022-12-31T16:24:38;13.70;99.90
52381;DHT22;38310;52.796;6.942;2022-12-31T16:27:06;13.70;99.90
52381;DHT22;38310;52.796;6.942;2022-12-31T16:29:35;13.60;99.90
52381;DHT22;38310;52.796;6.942;2022-12-31T16:32:01;13.60;99.90
52381;DHT22;38310;52.796;6.942;2022-12-31T16:34:27;13.60;99.90
52381;DHT22;38310;52.796;6.942;2022-12-31T16:37:04;13.60;99.90
52381;DHT22;38310;52.796;6.942;2022-12-31T16:39:32;13.60;99.90
52381;DHT22;38310;52.796;6.942;2022-12-31T16:42:19;13.60;99.90
52381;DHT22;38310;52.796;6.942;2022-12-31T16:44:46;13.60;99.90
52381;DHT22;38310;52.796;6.942;2022-12-31T16:47:35;13.60;99.90
52381;DHT22;38310;52.796;6.942;2022-12-31T16:50:15;13.60;99.90
52381;DHT22;38310;52.796;6.942;2022-12-31T16:52:44;13.60;99.90
52381;DHT22;38310;52.796;6.942;2022-12-31T16:55:20;13.60;99.90
52381;DHT22;38310;52.796;6.942;2022-12-31T16:57:48;13.50;99.90
52381;DHT22;38310;52.796;6.942;2022-12-31T17:00:19;13.50;99.90
52381;DHT22;38310;52.796;6.942;2022-12-31T17:03:22;13.50;99.90
52381;DHT22;38310;52.796;6.942;2022-12-31T17:08:27;13.70;99.90
52381;DHT22;38310;52.796;6.942;2022-12-31T17:10:54;13.90;99.90
52381;DHT22;38310;52.796;6.942;2022-12-31T17:13:29;13.90;99.90
52381;DHT22;38310;52.796;6.942;2022-12-31T17:15:57;13.90;99.90
52381;DHT22;38310;52.796;6.942;2022-12-31T17:18:35;14.00;99.90
52381;DHT22;38310;52.796;6.942;2022-12-31T17:21:08;14.00;99.90
52381;DHT22;38310;52.796;6.942;2022-12-31T17:23:37;14.10;99.90
52381;DHT22;38310;52.796;6.942;2022-12-31T17:26:12;14.20;99.90
52381;DHT22;38310;52.796;6.942;2022-12-31T17:28:46;14.10;99.90
52381;DHT22;38310;52.796;6.942;2022-12-31T17:36:37;14.00;99.90
52381;DHT22;38310;52.796;6.942;2022-12-31T17:39:18;14.10;99.90
52381;DHT22;38310;52.796;6.942;2022-12-31T17:41:45;14.20;99.90
52381;DHT22;38310;52.796;6.942;2022-12-31T17:44:22;14.20;99.90
52381;DHT22;38310;52.796;6.942;2022-12-31T17:46:50;14.20;99.90
52381;DHT22;38310;52.796;6.942;2022-12-31T17:49:16;14.30;99.90
52381;DHT22;38310;52.796;6.942;2022-12-31T17:51:46;14.30;99.90
52381;DHT22;38310;52.796;6.942;2022-12-31T17:54:16;14.30;99.90
52381;DHT22;38310;52.796;6.942;2022-12-31T17:56:43;14.40;99.90
52381;DHT22;38310;52.796;6.942;2022-12-31T17:59:21;14.40;99.90
52381;DHT22;38310;52.796;6.942;2022-12-31T18:01:48;14.40;99.90
52381;DHT22;38310;52.796;6.942;2022-12-31T18:04:15;14.30;99.90
52381;DHT22;38310;52.796;6.942;2022-12-31T18:06:42;14.40;99.90
52381;DHT22;38310;52.796;6.942;2022-12-31T18:09:08;14.40;99.90
52381;DHT22;38310;52.796;6.942;2022-12-31T18:11:35;14.50;99.90
52381;DHT22;38310;52.796;6.942;2022-12-31T18:14:02;14.50;99.90
52381;DHT22;38310;52.796;6.942;2022-12-31T18:16:28;14.50;99.90
52381;DHT22;38310;52.796;6.942;2022-12-31T18:18:56;14.40;99.90
52381;DHT22;38310;52.796;6.942;2022-12-31T18:21:28;14.50;99.90
52381;DHT22;38310;52.796;6.942;2022-12-31T18:23:58;14.40;99.90
52381;DHT22;38310;52.796;6.942;2022-12-31T18:26:25;14.50;99.90
52381;DHT22;38310;52.796;6.942;2022-12-31T18:28:51;14.40;99.90
52381;DHT22;38310;52.796;6.942;2022-12-31T18:31:18;14.40;99.90
52381;DHT22;38310;52.796;6.942;2022-12-31T18:33:44;14.40;99.90
52381;DHT22;38310;52.796;6.942;2022-12-31T18:36:13;14.40;99.90
52381;DHT22;38310;52.796;6.942;2022-12-31T18:38:39;14.40;99.90
52381;DHT22;38310;52.796;6.942;2022-12-31T18:41:06;14.50;99.90
52381;DHT22;38310;52.796;6.942;2022-12-31T18:43:32;14.50;99.90
52381;DHT22;38310;52.796;6.942;2022-12-31T18:45:58;14.60;99.90
52381;DHT22;38310;52.796;6.942;2022-12-31T18:48:23;14.50;99.90
52381;DHT22;38310;52.796;6.942;2022-12-31T18:50:49;14.60;99.90
52381;DHT22;38310;52.796;6.942;2022-12-31T18:53:17;14.60;99.90
52381;DHT22;38310;52.796;6.942;2022-12-31T18:58:15;14.50;99.90
52381;DHT22;38310;52.796;6.942;2022-12-31T19:00:41;14.50;99.90
52381;DHT22;38310;52.796;6.942;2022-12-31T19:03:12;14.60;99.90
52381;DHT22;38310;52.796;6.942;2022-12-31T19:05:38;14.60;99.90
52381;DHT22;38310;52.796;6.942;2022-12-31T19:08:04;14.60;99.90
52381;DHT22;38310;52.796;6.942;2022-12-31T19:10:30;14.50;99.90
52381;DHT22;38310;52.796;6.942;2022-12-31T19:12:55;14.50;99.90
52381;DHT22;38310;52.796;6.942;2022-12-31T19:15:27;14.50;99.90
52381;DHT22;38310;52.796;6.942;2022-12-31T19:17:55;14.40;99.90
52381;DHT22;38310;52.796;6.942;2022-12-31T19:20:20;14.50;99.90
52381;DHT22;38310;52.796;6.942;2022-12-31T19:22:46;14.50;99.90
52381;DHT22;38310;52.796;6.942;2022-12-31T19:25:17;14.60;99.90
52381;DHT22;38310;52.796;6.942;2022-12-31T19:27:43;14.50;99.90
52381;DHT22;38310;52.796;6.942;2022-12-31T19:30:21;14.60;99.90
52381;DHT22;38310;52.796;6.942;2022-12-31T19:32:47;14.50;99.90
52381;DHT22;38310;52.796;6.942;2022-12-31T19:35:14;14.10;99.90
52381;DHT22;38310;52.796;6.942;2022-12-31T19:37:40;14.50;99.90
52381;DHT22;38310;52.796;6.942;2022-12-31T19:40:12;14.70;99.90
52381;DHT22;38310;52.796;6.942;2022-12-31T19:42:38;14.60;99.90
52381;DHT22;38310;52.796;6.942;2022-12-31T19:45:04;14.70;99.90
52381;DHT22;38310;52.796;6.942;2022-12-31T19:47:30;14.60;99.90
52381;DHT22;38310;52.796;6.942;2022-12-31T19:49:55;14.70;99.90
52381;DHT22;38310;52.796;6.942;2022-12-31T19:52:21;14.80;99.90
52381;DHT22;38310;52.796;6.942;2022-12-31T19:54:47;14.70;99.90
52381;DHT22;38310;52.796;6.942;2022-12-31T19:57:12;14.70;99.90
52381;DHT22;38310;52.796;6.942;2022-12-31T19:59:38;14.70;99.90
52381;DHT22;38310;52.796;6.942;2022-12-31T20:02:04;14.70;99.90
52381;DHT22;38310;52.796;6.942;2022-12-31T20:04:30;14.60;99.90